sensor_id;sensor_type;location;lat;lon;timestamp;P1;durP1;ratioP1;P2;durP2;ratioP2
10045;SDS011;5063;50.878;4.742;2023-03-07T00:00:11;5.77;;;4.73;;
10045;SDS011;5063;50.878;4.742;2023-03-07T00:02:37;5.70;;;4.50;;
10045;SDS011;5063;50.878;4.742;2023-03-07T00:05:04;4.27;;;3.63;;
10045;SDS011;5063;50.878;4.742;2023-03-07T00:07:30;4.50;;;3.53;;
10045;SDS011;5063;50.878;4.742;2023-03-07T00:09:57;4.40;;;3.90;;
10045;SDS011;5063;50.878;4.742;2023-03-07T00:12:23;3.43;;;3.00;;
10045;SDS011;5063;50.878;4.742;2023-03-07T00:14:49;5.00;;;3.53;;
10045;SDS011;5063;50.878;4.742;2023-03-07T00:17:14;3.57;;;3.27;;
10045;SDS011;5063;50.878;4.742;2023-03-07T00:19:41;4.77;;;3.57;;
10045;SDS011;5063;50.878;4.742;2023-03-07T00:22:07;4.57;;;3.93;;
10045;SDS011;5063;50.878;4.742;2023-03-07T00:24:34;3.87;;;3.47;;
10045;SDS011;5063;50.878;4.742;2023-03-07T00:27:00;5.60;;;3.83;;
10045;SDS011;5063;50.878;4.742;2023-03-07T00:29:26;5.20;;;4.20;;
10045;SDS011;5063;50.878;4.742;2023-03-07T00:31:51;7.53;;;4.40;;
10045;SDS011;5063;50.878;4.742;2023-03-07T00:34:17;7.17;;;4.87;;
10045;SDS011;5063;50.878;4.742;2023-03-07T00:36:43;6.90;;;4.57;;
10045;SDS011;5063;50.878;4.742;2023-03-07T00:39:08;6.20;;;5.00;;
10045;SDS011;5063;50.878;4.742;2023-03-07T00:41:35;8.50;;;4.97;;
10045;SDS011;5063;50.878;4.742;2023-03-07T00:44:00;8.00;;;5.53;;
10045;SDS011;5063;50.878;4.742;2023-03-07T00:46:26;7.87;;;5.80;;
10045;SDS011;5063;50.878;4.742;2023-03-07T00:48:52;10.20;;;5.90;;
10045;SDS011;5063;50.878;4.742;2023-03-07T00:51:19;9.00;;;6.07;;
10045;SDS011;5063;50.878;4.742;2023-03-07T00:53:45;13.57;;;7.03;;
10045;SDS011;5063;50.878;4.742;2023-03-07T00:56:13;14.17;;;7.23;;
10045;SDS011;5063;50.878;4.742;2023-03-07T00:58:40;11.33;;;7.83;;
10045;SDS011;5063;50.878;4.742;2023-03-07T01:01:06;10.30;;;7.47;;
10045;SDS011;5063;50.878;4.742;2023-03-07T01:03:34;12.93;;;7.60;;
10045;SDS011;5063;50.878;4.742;2023-03-07T01:06:01;12.57;;;8.23;;
10045;SDS011;5063;50.878;4.742;2023-03-07T01:08:32;15.27;;;8.47;;
10045;SDS011;5063;50.878;4.742;2023-03-07T01:10:59;13.60;;;8.87;;
10045;SDS011;5063;50.878;4.742;2023-03-07T01:13:29;12.37;;;8.20;;
10045;SDS011;5063;50.878;4.742;2023-03-07T01:15:55;11.77;;;7.87;;
10045;SDS011;5063;50.878;4.742;2023-03-07T01:18:30;14.63;;;8.73;;
10045;SDS011;5063;50.878;4.742;2023-03-07T01:20:56;13.40;;;8.70;;
10045;SDS011;5063;50.878;4.742;2023-03-07T01:23:22;13.33;;;9.00;;
10045;SDS011;5063;50.878;4.742;2023-03-07T01:25:47;14.23;;;8.97;;
10045;SDS011;5063;50.878;4.742;2023-03-07T01:28:13;11.93;;;8.43;;
10045;SDS011;5063;50.878;4.742;2023-03-07T01:30:39;10.77;;;8.00;;
10045;SDS011;5063;50.878;4.742;2023-03-07T01:33:05;12.53;;;8.53;;
10045;SDS011;5063;50.878;4.742;2023-03-07T01:35:38;12.80;;;8.43;;
10045;SDS011;5063;50.878;4.742;2023-03-07T01:38:04;11.33;;;9.03;;
10045;SDS011;5063;50.878;4.742;2023-03-07T01:40:30;14.73;;;9.47;;
10045;SDS011;5063;50.878;4.742;2023-03-07T01:48:13;14.70;;;9.80;;
10045;SDS011;5063;50.878;4.742;2023-03-07T01:50:39;13.77;;;9.57;;
10045;SDS011;5063;50.878;4.742;2023-03-07T01:53:05;12.67;;;9.37;;
10045;SDS011;5063;50.878;4.742;2023-03-07T01:55:33;11.97;;;8.60;;
10045;SDS011;5063;50.878;4.742;2023-03-07T01:58:11;12.57;;;8.43;;
10045;SDS011;5063;50.878;4.742;2023-03-07T02:00:37;12.27;;;8.97;;
10045;SDS011;5063;50.878;4.742;2023-03-07T02:03:15;10.97;;;8.50;;
10045;SDS011;5063;50.878;4.742;2023-03-07T02:05:54;12.90;;;8.87;;
10045;SDS011;5063;50.878;4.742;2023-03-07T02:08:23;13.53;;;8.47;;
10045;SDS011;5063;50.878;4.742;2023-03-07T02:10:51;13.73;;;8.90;;
10045;SDS011;5063;50.878;4.742;2023-03-07T02:13:18;15.53;;;8.93;;
10045;SDS011;5063;50.878;4.742;2023-03-07T02:15:44;11.50;;;9.03;;
10045;SDS011;5063;50.878;4.742;2023-03-07T02:18:11;15.73;;;9.57;;
10045;SDS011;5063;50.878;4.742;2023-03-07T02:23:24;15.33;;;8.87;;
10045;SDS011;5063;50.878;4.742;2023-03-07T02:26:52;11.13;;;8.70;;
10045;SDS011;5063;50.878;4.742;2023-03-07T02:28:56;13.47;;;8.07;;
10045;SDS011;5063;50.878;4.742;2023-03-07T02:31:23;15.10;;;9.00;;
10045;SDS011;5063;50.878;4.742;2023-03-07T02:33:49;18.67;;;10.00;;
10045;SDS011;5063;50.878;4.742;2023-03-07T02:36:26;14.73;;;9.20;;
10045;SDS011;5063;50.878;4.742;2023-03-07T02:38:55;14.63;;;8.60;;
10045;SDS011;5063;50.878;4.742;2023-03-07T02:41:23;13.77;;;9.17;;
10045;SDS011;5063;50.878;4.742;2023-03-07T02:43:52;15.67;;;10.23;;
10045;SDS011;5063;50.878;4.742;2023-03-07T02:46:18;14.40;;;10.07;;
10045;SDS011;5063;50.878;4.742;2023-03-07T02:48:44;13.80;;;9.17;;
10045;SDS011;5063;50.878;4.742;2023-03-07T02:51:11;15.63;;;10.33;;
10045;SDS011;5063;50.878;4.742;2023-03-07T02:53:36;15.33;;;10.03;;
10045;SDS011;5063;50.878;4.742;2023-03-07T02:56:03;13.47;;;9.47;;
10045;SDS011;5063;50.878;4.742;2023-03-07T02:58:30;12.93;;;9.23;;
10045;SDS011;5063;50.878;4.742;2023-03-07T03:00:55;14.53;;;9.80;;
10045;SDS011;5063;50.878;4.742;2023-03-07T03:03:21;15.30;;;10.50;;
10045;SDS011;5063;50.878;4.742;2023-03-07T03:05:47;14.50;;;9.83;;
10045;SDS011;5063;50.878;4.742;2023-03-07T03:08:13;13.50;;;9.63;;
10045;SDS011;5063;50.878;4.742;2023-03-07T03:10:39;19.53;;;9.80;;
10045;SDS011;5063;50.878;4.742;2023-03-07T03:13:04;14.47;;;9.13;;
10045;SDS011;5063;50.878;4.742;2023-03-07T03:15:30;13.97;;;9.90;;
10045;SDS011;5063;50.878;4.742;2023-03-07T03:17:56;16.20;;;9.77;;
10045;SDS011;5063;50.878;4.742;2023-03-07T03:20:22;16.70;;;9.70;;
10045;SDS011;5063;50.878;4.742;2023-03-07T03:22:50;15.47;;;10.10;;
10045;SDS011;5063;50.878;4.742;2023-03-07T03:25:16;13.03;;;9.33;;
10045;SDS011;5063;50.878;4.742;2023-03-07T03:27:43;14.77;;;9.70;;
10045;SDS011;5063;50.878;4.742;2023-03-07T03:30:10;15.17;;;9.37;;
10045;SDS011;5063;50.878;4.742;2023-03-07T03:32:37;15.33;;;10.37;;
10045;SDS011;5063;50.878;4.742;2023-03-07T03:35:03;16.37;;;11.30;;
10045;SDS011;5063;50.878;4.742;2023-03-07T03:37:31;17.43;;;9.50;;
10045;SDS011;5063;50.878;4.742;2023-03-07T03:39:57;15.73;;;9.33;;
10045;SDS011;5063;50.878;4.742;2023-03-07T03:42:23;13.53;;;9.50;;
10045;SDS011;5063;50.878;4.742;2023-03-07T03:44:48;15.23;;;10.43;;
10045;SDS011;5063;50.878;4.742;2023-03-07T03:47:14;20.47;;;10.27;;
10045;SDS011;5063;50.878;4.742;2023-03-07T03:49:40;14.30;;;9.43;;
10045;SDS011;5063;50.878;4.742;2023-03-07T03:52:06;13.33;;;9.37;;
10045;SDS011;5063;50.878;4.742;2023-03-07T03:54:33;14.77;;;9.77;;
10045;SDS011;5063;50.878;4.742;2023-03-07T03:56:58;15.20;;;9.37;;
10045;SDS011;5063;50.878;4.742;2023-03-07T03:59:24;14.03;;;9.70;;
10045;SDS011;5063;50.878;4.742;2023-03-07T04:01:50;13.90;;;9.73;;
10045;SDS011;5063;50.878;4.742;2023-03-07T04:04:19;14.63;;;9.87;;
10045;SDS011;5063;50.878;4.742;2023-03-07T04:06:45;12.67;;;9.93;;
10045;SDS011;5063;50.878;4.742;2023-03-07T04:09:10;15.57;;;9.60;;
10045;SDS011;5063;50.878;4.742;2023-03-07T04:11:36;14.73;;;9.37;;
10045;SDS011;5063;50.878;4.742;2023-03-07T04:14:02;13.40;;;10.10;;
10045;SDS011;5063;50.878;4.742;2023-03-07T04:16:28;12.83;;;9.17;;
10045;SDS011;5063;50.878;4.742;2023-03-07T04:18:53;13.87;;;9.13;;
10045;SDS011;5063;50.878;4.742;2023-03-07T04:21:19;13.47;;;9.00;;
10045;SDS011;5063;50.878;4.742;2023-03-07T04:23:46;13.20;;;9.30;;
10045;SDS011;5063;50.878;4.742;2023-03-07T04:26:19;13.73;;;9.43;;
10045;SDS011;5063;50.878;4.742;2023-03-07T04:28:45;14.73;;;9.40;;
10045;SDS011;5063;50.878;4.742;2023-03-07T04:31:17;14.97;;;9.97;;
10045;SDS011;5063;50.878;4.742;2023-03-07T04:33:45;13.90;;;9.67;;
10045;SDS011;5063;50.878;4.742;2023-03-07T04:36:11;14.63;;;9.50;;
10045;SDS011;5063;50.878;4.742;2023-03-07T04:38:37;12.83;;;9.20;;
10045;SDS011;5063;50.878;4.742;2023-03-07T04:41:09;12.57;;;7.80;;
10045;SDS011;5063;50.878;4.742;2023-03-07T04:43:40;13.30;;;9.43;;
10045;SDS011;5063;50.878;4.742;2023-03-07T04:46:05;17.23;;;9.30;;
10045;SDS011;5063;50.878;4.742;2023-03-07T04:48:33;13.50;;;8.50;;
10045;SDS011;5063;50.878;4.742;2023-03-07T04:50:58;14.07;;;9.03;;
10045;SDS011;5063;50.878;4.742;2023-03-07T04:53:24;14.87;;;9.50;;
10045;SDS011;5063;50.878;4.742;2023-03-07T04:55:50;14.70;;;9.07;;
10045;SDS011;5063;50.878;4.742;2023-03-07T04:58:20;16.30;;;9.73;;
10045;SDS011;5063;50.878;4.742;2023-03-07T05:00:46;14.67;;;9.90;;
10045;SDS011;5063;50.878;4.742;2023-03-07T05:03:12;13.63;;;9.30;;
10045;SDS011;5063;50.878;4.742;2023-03-07T05:05:38;13.40;;;8.93;;
10045;SDS011;5063;50.878;4.742;2023-03-07T05:08:04;12.93;;;8.33;;
10045;SDS011;5063;50.878;4.742;2023-03-07T05:10:30;15.23;;;9.47;;
10045;SDS011;5063;50.878;4.742;2023-03-07T05:12:57;12.27;;;8.77;;
10045;SDS011;5063;50.878;4.742;2023-03-07T05:15:22;12.20;;;9.17;;
10045;SDS011;5063;50.878;4.742;2023-03-07T05:17:48;14.33;;;8.70;;
10045;SDS011;5063;50.878;4.742;2023-03-07T05:20:14;11.37;;;9.10;;
10045;SDS011;5063;50.878;4.742;2023-03-07T05:22:40;13.53;;;9.10;;
10045;SDS011;5063;50.878;4.742;2023-03-07T05:25:05;11.90;;;8.93;;
10045;SDS011;5063;50.878;4.742;2023-03-07T05:27:31;13.97;;;9.13;;
10045;SDS011;5063;50.878;4.742;2023-03-07T05:29:57;14.80;;;10.47;;
10045;SDS011;5063;50.878;4.742;2023-03-07T05:32:23;13.53;;;9.27;;
10045;SDS011;5063;50.878;4.742;2023-03-07T05:34:49;15.97;;;9.80;;
10045;SDS011;5063;50.878;4.742;2023-03-07T05:37:15;15.40;;;9.30;;
10045;SDS011;5063;50.878;4.742;2023-03-07T05:39:41;11.70;;;8.93;;
10045;SDS011;5063;50.878;4.742;2023-03-07T05:42:07;16.07;;;10.07;;
10045;SDS011;5063;50.878;4.742;2023-03-07T05:44:33;18.60;;;9.30;;
10045;SDS011;5063;50.878;4.742;2023-03-07T05:46:59;15.43;;;9.57;;
10045;SDS011;5063;50.878;4.742;2023-03-07T05:49:24;13.37;;;9.43;;
10045;SDS011;5063;50.878;4.742;2023-03-07T05:51:50;10.80;;;8.07;;
10045;SDS011;5063;50.878;4.742;2023-03-07T05:54:16;15.03;;;9.00;;
10045;SDS011;5063;50.878;4.742;2023-03-07T05:56:42;12.43;;;8.87;;
10045;SDS011;5063;50.878;4.742;2023-03-07T05:59:07;10.57;;;8.10;;
10045;SDS011;5063;50.878;4.742;2023-03-07T06:01:35;13.43;;;9.00;;
10045;SDS011;5063;50.878;4.742;2023-03-07T06:04:01;11.43;;;8.60;;
10045;SDS011;5063;50.878;4.742;2023-03-07T06:06:27;10.50;;;8.27;;
10045;SDS011;5063;50.878;4.742;2023-03-07T06:08:53;11.50;;;8.67;;
10045;SDS011;5063;50.878;4.742;2023-03-07T06:11:18;12.33;;;8.57;;
10045;SDS011;5063;50.878;4.742;2023-03-07T06:13:45;11.27;;;8.23;;
10045;SDS011;5063;50.878;4.742;2023-03-07T06:16:10;10.87;;;8.83;;
10045;SDS011;5063;50.878;4.742;2023-03-07T06:18:36;17.30;;;8.60;;
10045;SDS011;5063;50.878;4.742;2023-03-07T06:21:03;14.87;;;9.73;;
10045;SDS011;5063;50.878;4.742;2023-03-07T06:23:31;13.10;;;8.13;;
10045;SDS011;5063;50.878;4.742;2023-03-07T06:25:59;11.50;;;8.40;;
10045;SDS011;5063;50.878;4.742;2023-03-07T06:28:25;12.70;;;9.07;;
10045;SDS011;5063;50.878;4.742;2023-03-07T06:30:51;12.37;;;8.70;;
10045;SDS011;5063;50.878;4.742;2023-03-07T06:33:17;11.70;;;8.40;;
10045;SDS011;5063;50.878;4.742;2023-03-07T06:35:43;15.83;;;8.33;;
10045;SDS011;5063;50.878;4.742;2023-03-07T06:38:09;10.60;;;7.63;;
10045;SDS011;5063;50.878;4.742;2023-03-07T06:40:36;12.17;;;8.20;;
10045;SDS011;5063;50.878;4.742;2023-03-07T06:43:02;12.23;;;8.27;;
10045;SDS011;5063;50.878;4.742;2023-03-07T06:45:28;15.73;;;8.83;;
10045;SDS011;5063;50.878;4.742;2023-03-07T06:47:54;12.13;;;9.27;;
10045;SDS011;5063;50.878;4.742;2023-03-07T06:50:20;12.07;;;9.23;;
10045;SDS011;5063;50.878;4.742;2023-03-07T06:52:46;12.47;;;9.43;;
10045;SDS011;5063;50.878;4.742;2023-03-07T06:55:14;12.40;;;9.13;;
10045;SDS011;5063;50.878;4.742;2023-03-07T06:57:40;11.10;;;8.60;;
10045;SDS011;5063;50.878;4.742;2023-03-07T07:00:06;10.77;;;8.13;;
10045;SDS011;5063;50.878;4.742;2023-03-07T07:02:33;12.77;;;8.67;;
10045;SDS011;5063;50.878;4.742;2023-03-07T07:04:59;12.83;;;9.00;;
10045;SDS011;5063;50.878;4.742;2023-03-07T07:07:26;13.60;;;8.83;;
10045;SDS011;5063;50.878;4.742;2023-03-07T07:09:52;13.53;;;9.33;;
10045;SDS011;5063;50.878;4.742;2023-03-07T07:12:18;12.27;;;8.80;;
10045;SDS011;5063;50.878;4.742;2023-03-07T07:14:44;16.30;;;9.40;;
10045;SDS011;5063;50.878;4.742;2023-03-07T07:17:09;11.57;;;8.93;;
10045;SDS011;5063;50.878;4.742;2023-03-07T07:19:35;13.33;;;8.67;;
10045;SDS011;5063;50.878;4.742;2023-03-07T07:22:01;12.97;;;7.97;;
10045;SDS011;5063;50.878;4.742;2023-03-07T07:24:28;12.67;;;9.43;;
10045;SDS011;5063;50.878;4.742;2023-03-07T07:26:54;14.70;;;9.97;;
10045;SDS011;5063;50.878;4.742;2023-03-07T07:29:20;15.23;;;10.53;;
10045;SDS011;5063;50.878;4.742;2023-03-07T07:31:46;13.13;;;8.63;;
10045;SDS011;5063;50.878;4.742;2023-03-07T07:34:13;17.53;;;9.17;;
10045;SDS011;5063;50.878;4.742;2023-03-07T07:36:39;16.13;;;9.40;;
10045;SDS011;5063;50.878;4.742;2023-03-07T07:39:06;12.47;;;9.47;;
10045;SDS011;5063;50.878;4.742;2023-03-07T07:41:34;13.97;;;9.20;;
10045;SDS011;5063;50.878;4.742;2023-03-07T07:44:00;11.33;;;9.03;;
10045;SDS011;5063;50.878;4.742;2023-03-07T07:46:26;14.73;;;9.97;;
10045;SDS011;5063;50.878;4.742;2023-03-07T07:48:54;12.43;;;8.63;;
10045;SDS011;5063;50.878;4.742;2023-03-07T07:51:20;12.77;;;9.03;;
10045;SDS011;5063;50.878;4.742;2023-03-07T07:53:46;12.27;;;8.53;;
10045;SDS011;5063;50.878;4.742;2023-03-07T07:56:11;13.00;;;9.23;;
10045;SDS011;5063;50.878;4.742;2023-03-07T07:58:37;12.43;;;9.33;;
10045;SDS011;5063;50.878;4.742;2023-03-07T08:04:02;12.97;;;8.30;;
10045;SDS011;5063;50.878;4.742;2023-03-07T08:06:27;12.27;;;8.70;;
10045;SDS011;5063;50.878;4.742;2023-03-07T08:08:54;12.27;;;8.17;;
10045;SDS011;5063;50.878;4.742;2023-03-07T08:11:20;13.97;;;8.63;;
10045;SDS011;5063;50.878;4.742;2023-03-07T08:13:47;10.50;;;8.43;;
10045;SDS011;5063;50.878;4.742;2023-03-07T08:16:13;13.70;;;9.10;;
10045;SDS011;5063;50.878;4.742;2023-03-07T08:18:41;12.13;;;8.10;;
10045;SDS011;5063;50.878;4.742;2023-03-07T08:21:08;12.00;;;8.40;;
10045;SDS011;5063;50.878;4.742;2023-03-07T08:23:34;11.97;;;7.67;;
10045;SDS011;5063;50.878;4.742;2023-03-07T08:26:02;12.07;;;8.23;;
10045;SDS011;5063;50.878;4.742;2023-03-07T08:28:29;12.63;;;7.70;;
10045;SDS011;5063;50.878;4.742;2023-03-07T08:30:55;9.87;;;7.73;;
10045;SDS011;5063;50.878;4.742;2023-03-07T08:33:21;10.77;;;7.97;;
10045;SDS011;5063;50.878;4.742;2023-03-07T08:35:47;10.43;;;8.30;;
10045;SDS011;5063;50.878;4.742;2023-03-07T08:38:12;10.37;;;7.70;;
10045;SDS011;5063;50.878;4.742;2023-03-07T08:40:38;10.47;;;6.80;;
10045;SDS011;5063;50.878;4.742;2023-03-07T08:43:04;10.83;;;7.07;;
10045;SDS011;5063;50.878;4.742;2023-03-07T08:45:30;10.33;;;7.40;;
10045;SDS011;5063;50.878;4.742;2023-03-07T08:47:55;8.47;;;6.00;;
10045;SDS011;5063;50.878;4.742;2023-03-07T08:50:22;8.83;;;6.50;;
10045;SDS011;5063;50.878;4.742;2023-03-07T08:52:49;9.80;;;6.87;;
10045;SDS011;5063;50.878;4.742;2023-03-07T08:55:15;10.73;;;7.53;;
10045;SDS011;5063;50.878;4.742;2023-03-07T08:57:41;8.40;;;7.00;;
10045;SDS011;5063;50.878;4.742;2023-03-07T09:00:09;10.13;;;7.03;;
10045;SDS011;5063;50.878;4.742;2023-03-07T09:02:36;10.70;;;7.50;;
10045;SDS011;5063;50.878;4.742;2023-03-07T09:05:02;10.80;;;7.43;;
10045;SDS011;5063;50.878;4.742;2023-03-07T09:07:29;9.80;;;7.60;;
10045;SDS011;5063;50.878;4.742;2023-03-07T09:09:54;10.43;;;7.83;;
10045;SDS011;5063;50.878;4.742;2023-03-07T09:12:20;9.77;;;7.53;;
10045;SDS011;5063;50.878;4.742;2023-03-07T09:14:46;7.67;;;6.67;;
10045;SDS011;5063;50.878;4.742;2023-03-07T09:17:12;11.70;;;7.37;;
10045;SDS011;5063;50.878;4.742;2023-03-07T09:19:38;10.97;;;7.77;;
10045;SDS011;5063;50.878;4.742;2023-03-07T09:22:04;11.37;;;7.80;;
10045;SDS011;5063;50.878;4.742;2023-03-07T09:24:29;12.40;;;7.30;;
10045;SDS011;5063;50.878;4.742;2023-03-07T09:26:55;9.93;;;6.77;;
10045;SDS011;5063;50.878;4.742;2023-03-07T09:29:22;11.40;;;6.93;;
10045;SDS011;5063;50.878;4.742;2023-03-07T09:31:49;8.57;;;6.40;;
10045;SDS011;5063;50.878;4.742;2023-03-07T09:34:15;8.63;;;6.57;;
10045;SDS011;5063;50.878;4.742;2023-03-07T09:36:41;8.67;;;6.57;;
10045;SDS011;5063;50.878;4.742;2023-03-07T09:39:06;9.80;;;7.13;;
10045;SDS011;5063;50.878;4.742;2023-03-07T09:44:14;8.80;;;6.67;;
10045;SDS011;5063;50.878;4.742;2023-03-07T09:51:54;7.87;;;6.13;;
10045;SDS011;5063;50.878;4.742;2023-03-07T09:54:31;9.70;;;6.73;;
10045;SDS011;5063;50.878;4.742;2023-03-07T09:57:06;8.03;;;5.93;;
10045;SDS011;5063;50.878;4.742;2023-03-07T09:59:43;7.53;;;5.97;;
10045;SDS011;5063;50.878;4.742;2023-03-07T10:07:53;8.07;;;6.00;;
10045;SDS011;5063;50.878;4.742;2023-03-07T10:10:21;9.27;;;6.10;;
10045;SDS011;5063;50.878;4.742;2023-03-07T10:29:26;8.27;;;6.93;;
10045;SDS011;5063;50.878;4.742;2023-03-07T10:34:59;7.43;;;5.73;;
10045;SDS011;5063;50.878;4.742;2023-03-07T10:37:46;5.80;;;5.20;;
10045;SDS011;5063;50.878;4.742;2023-03-07T10:42:56;6.00;;;4.80;;
10045;SDS011;5063;50.878;4.742;2023-03-07T10:45:23;6.33;;;5.20;;
10045;SDS011;5063;50.878;4.742;2023-03-07T10:47:54;9.23;;;4.87;;
10045;SDS011;5063;50.878;4.742;2023-03-07T10:53:20;3.40;;;3.10;;
10045;SDS011;5063;50.878;4.742;2023-03-07T10:55:48;5.33;;;3.40;;
10045;SDS011;5063;50.878;4.742;2023-03-07T10:58:24;3.40;;;3.10;;
10045;SDS011;5063;50.878;4.742;2023-03-07T11:03:38;6.63;;;3.20;;
10045;SDS011;5063;50.878;4.742;2023-03-07T11:09:13;4.03;;;3.33;;
10045;SDS011;5063;50.878;4.742;2023-03-07T11:14:44;3.30;;;3.00;;
10045;SDS011;5063;50.878;4.742;2023-03-07T11:17:54;4.10;;;3.40;;
10045;SDS011;5063;50.878;4.742;2023-03-07T11:20:27;4.37;;;3.97;;
10045;SDS011;5063;50.878;4.742;2023-03-07T11:23:13;6.23;;;4.07;;
10045;SDS011;5063;50.878;4.742;2023-03-07T11:25:54;5.10;;;3.97;;
10045;SDS011;5063;50.878;4.742;2023-03-07T11:31:05;4.80;;;4.10;;
10045;SDS011;5063;50.878;4.742;2023-03-07T11:34:07;4.70;;;3.70;;
10045;SDS011;5063;50.878;4.742;2023-03-07T11:36:57;4.23;;;3.10;;
10045;SDS011;5063;50.878;4.742;2023-03-07T11:39:36;3.57;;;2.87;;
10045;SDS011;5063;50.878;4.742;2023-03-07T11:42:15;2.50;;;2.07;;
10045;SDS011;5063;50.878;4.742;2023-03-07T11:47:33;3.50;;;2.40;;
10045;SDS011;5063;50.878;4.742;2023-03-07T11:55:24;3.33;;;1.80;;
10045;SDS011;5063;50.878;4.742;2023-03-07T12:07:08;1.80;;;1.70;;
10045;SDS011;5063;50.878;4.742;2023-03-07T12:10:02;2.10;;;1.90;;
10045;SDS011;5063;50.878;4.742;2023-03-07T12:15:34;2.53;;;1.83;;
10045;SDS011;5063;50.878;4.742;2023-03-07T12:23:56;2.43;;;2.23;;
10045;SDS011;5063;50.878;4.742;2023-03-07T12:26:27;4.37;;;2.50;;
10045;SDS011;5063;50.878;4.742;2023-03-07T12:29:22;2.60;;;2.40;;
10045;SDS011;5063;50.878;4.742;2023-03-07T12:31:51;5.20;;;2.10;;
10045;SDS011;5063;50.878;4.742;2023-03-07T12:34:41;2.70;;;2.50;;
10045;SDS011;5063;50.878;4.742;2023-03-07T12:37:12;4.30;;;2.60;;
10045;SDS011;5063;50.878;4.742;2023-03-07T12:39:51;2.50;;;2.30;;
10045;SDS011;5063;50.878;4.742;2023-03-07T12:42:33;2.57;;;2.17;;
10045;SDS011;5063;50.878;4.742;2023-03-07T12:45:27;2.70;;;2.50;;
10045;SDS011;5063;50.878;4.742;2023-03-07T12:48:07;2.50;;;2.27;;
10045;SDS011;5063;50.878;4.742;2023-03-07T12:50:46;2.33;;;2.13;;
10045;SDS011;5063;50.878;4.742;2023-03-07T12:58:46;3.77;;;2.67;;
10045;SDS011;5063;50.878;4.742;2023-03-07T13:01:28;3.50;;;2.50;;
10045;SDS011;5063;50.878;4.742;2023-03-07T13:06:28;3.00;;;2.70;;
10045;SDS011;5063;50.878;4.742;2023-03-07T13:08:57;3.37;;;2.70;;
10045;SDS011;5063;50.878;4.742;2023-03-07T13:11:28;2.90;;;2.60;;
10045;SDS011;5063;50.878;4.742;2023-03-07T13:16:35;3.83;;;3.40;;
10045;SDS011;5063;50.878;4.742;2023-03-07T13:21:55;2.60;;;2.40;;
10045;SDS011;5063;50.878;4.742;2023-03-07T13:24:31;2.80;;;2.60;;
10045;SDS011;5063;50.878;4.742;2023-03-07T13:27:00;3.60;;;3.03;;
10045;SDS011;5063;50.878;4.742;2023-03-07T13:45:55;6.63;;;5.93;;
10045;SDS011;5063;50.878;4.742;2023-03-07T13:53:38;8.10;;;5.50;;
10045;SDS011;5063;50.878;4.742;2023-03-07T14:06:47;4.63;;;4.17;;
10045;SDS011;5063;50.878;4.742;2023-03-07T14:09:18;5.30;;;4.80;;
10045;SDS011;5063;50.878;4.742;2023-03-07T14:25:47;4.43;;;3.93;;
10045;SDS011;5063;50.878;4.742;2023-03-07T14:28:20;4.93;;;3.97;;
10045;SDS011;5063;50.878;4.742;2023-03-07T14:33:29;5.63;;;5.03;;
10045;SDS011;5063;50.878;4.742;2023-03-07T14:35:56;5.87;;;4.63;;
10045;SDS011;5063;50.878;4.742;2023-03-07T14:38:22;4.70;;;4.20;;
10045;SDS011;5063;50.878;4.742;2023-03-07T14:41:08;4.70;;;3.97;;
10045;SDS011;5063;50.878;4.742;2023-03-07T14:51:29;4.10;;;3.50;;
10045;SDS011;5063;50.878;4.742;2023-03-07T14:53:55;4.20;;;3.80;;
10045;SDS011;5063;50.878;4.742;2023-03-07T14:56:26;5.63;;;3.50;;
10045;SDS011;5063;50.878;4.742;2023-03-07T14:58:54;4.10;;;3.63;;
10045;SDS011;5063;50.878;4.742;2023-03-07T15:01:26;4.17;;;3.43;;
10045;SDS011;5063;50.878;4.742;2023-03-07T15:03:59;3.50;;;3.07;;
10045;SDS011;5063;50.878;4.742;2023-03-07T15:06:27;3.60;;;3.30;;
10045;SDS011;5063;50.878;4.742;2023-03-07T15:08:54;3.37;;;3.07;;
10045;SDS011;5063;50.878;4.742;2023-03-07T15:16:47;4.40;;;3.27;;
10045;SDS011;5063;50.878;4.742;2023-03-07T15:19:37;3.70;;;2.93;;
10045;SDS011;5063;50.878;4.742;2023-03-07T15:22:15;3.13;;;2.80;;
10045;SDS011;5063;50.878;4.742;2023-03-07T15:24:50;3.50;;;3.20;;
10045;SDS011;5063;50.878;4.742;2023-03-07T15:27:24;3.80;;;2.90;;
10045;SDS011;5063;50.878;4.742;2023-03-07T15:29:52;3.37;;;3.07;;
10045;SDS011;5063;50.878;4.742;2023-03-07T15:32:29;2.50;;;2.30;;
10045;SDS011;5063;50.878;4.742;2023-03-07T15:37:40;4.30;;;2.37;;
10045;SDS011;5063;50.878;4.742;2023-03-07T15:40:34;3.13;;;2.20;;
10045;SDS011;5063;50.878;4.742;2023-03-07T15:45:36;3.77;;;3.40;;
10045;SDS011;5063;50.878;4.742;2023-03-07T15:48:08;5.60;;;3.03;;
10045;SDS011;5063;50.878;4.742;2023-03-07T15:50:52;3.27;;;2.70;;
10045;SDS011;5063;50.878;4.742;2023-03-07T15:53:24;4.87;;;3.57;;
10045;SDS011;5063;50.878;4.742;2023-03-07T15:56:16;2.80;;;2.60;;
10045;SDS011;5063;50.878;4.742;2023-03-07T15:58:57;3.27;;;2.97;;
10045;SDS011;5063;50.878;4.742;2023-03-07T16:01:26;3.40;;;2.90;;
10045;SDS011;5063;50.878;4.742;2023-03-07T16:03:56;4.20;;;3.77;;
10045;SDS011;5063;50.878;4.742;2023-03-07T16:09:14;4.73;;;4.17;;
10045;SDS011;5063;50.878;4.742;2023-03-07T16:11:43;4.50;;;3.97;;
10045;SDS011;5063;50.878;4.742;2023-03-07T16:14:19;5.63;;;4.87;;
10045;SDS011;5063;50.878;4.742;2023-03-07T16:16:58;5.90;;;4.73;;
10045;SDS011;5063;50.878;4.742;2023-03-07T16:19:26;5.07;;;4.20;;
10045;SDS011;5063;50.878;4.742;2023-03-07T16:21:52;4.80;;;4.30;;
10045;SDS011;5063;50.878;4.742;2023-03-07T16:24:18;5.00;;;4.50;;
10045;SDS011;5063;50.878;4.742;2023-03-07T16:26:44;5.17;;;3.80;;
10045;SDS011;5063;50.878;4.742;2023-03-07T16:29:15;3.87;;;3.20;;
10045;SDS011;5063;50.878;4.742;2023-03-07T16:31:43;3.13;;;2.83;;
10045;SDS011;5063;50.878;4.742;2023-03-07T16:34:16;2.90;;;2.60;;
10045;SDS011;5063;50.878;4.742;2023-03-07T16:36:43;3.47;;;3.13;;
10045;SDS011;5063;50.878;4.742;2023-03-07T16:39:11;4.83;;;3.07;;
10045;SDS011;5063;50.878;4.742;2023-03-07T16:41:38;3.30;;;3.00;;
10045;SDS011;5063;50.878;4.742;2023-03-07T16:44:13;3.53;;;2.93;;
10045;SDS011;5063;50.878;4.742;2023-03-07T16:46:41;3.03;;;2.73;;
10045;SDS011;5063;50.878;4.742;2023-03-07T16:49:11;2.73;;;2.50;;
10045;SDS011;5063;50.878;4.742;2023-03-07T16:51:39;3.37;;;2.83;;
10045;SDS011;5063;50.878;4.742;2023-03-07T16:54:05;3.70;;;2.80;;
10045;SDS011;5063;50.878;4.742;2023-03-07T16:56:32;2.87;;;2.60;;
10045;SDS011;5063;50.878;4.742;2023-03-07T16:59:01;3.93;;;2.97;;
10045;SDS011;5063;50.878;4.742;2023-03-07T17:01:27;3.90;;;3.00;;
10045;SDS011;5063;50.878;4.742;2023-03-07T17:03:53;3.50;;;3.20;;
10045;SDS011;5063;50.878;4.742;2023-03-07T17:06:20;4.03;;;3.63;;
10045;SDS011;5063;50.878;4.742;2023-03-07T17:08:46;3.87;;;3.50;;
10045;SDS011;5063;50.878;4.742;2023-03-07T17:13:46;6.77;;;4.57;;
10045;SDS011;5063;50.878;4.742;2023-03-07T17:16:13;4.70;;;4.30;;
10045;SDS011;5063;50.878;4.742;2023-03-07T17:18:40;5.10;;;4.27;;
10045;SDS011;5063;50.878;4.742;2023-03-07T17:21:08;5.83;;;4.03;;
10045;SDS011;5063;50.878;4.742;2023-03-07T17:23:39;4.77;;;4.27;;
10045;SDS011;5063;50.878;4.742;2023-03-07T17:26:05;4.83;;;4.33;;
10045;SDS011;5063;50.878;4.742;2023-03-07T17:28:31;5.40;;;4.47;;
10045;SDS011;5063;50.878;4.742;2023-03-07T17:30:57;5.47;;;4.60;;
10045;SDS011;5063;50.878;4.742;2023-03-07T17:33:23;5.50;;;4.90;;
10045;SDS011;5063;50.878;4.742;2023-03-07T17:35:49;4.43;;;4.03;;
10045;SDS011;5063;50.878;4.742;2023-03-07T17:38:14;6.23;;;4.90;;
10045;SDS011;5063;50.878;4.742;2023-03-07T17:40:40;4.90;;;4.40;;
10045;SDS011;5063;50.878;4.742;2023-03-07T17:43:08;6.93;;;4.80;;
10045;SDS011;5063;50.878;4.742;2023-03-07T17:45:34;6.83;;;5.10;;
10045;SDS011;5063;50.878;4.742;2023-03-07T17:47:59;5.83;;;5.23;;
10045;SDS011;5063;50.878;4.742;2023-03-07T17:50:25;7.63;;;5.53;;
10045;SDS011;5063;50.878;4.742;2023-03-07T17:52:54;6.70;;;5.00;;
10045;SDS011;5063;50.878;4.742;2023-03-07T17:55:20;7.07;;;5.50;;